createdAt,value
2023-02-02T00:00:43.241Z,82.43
2023-02-02T00:03:13.099Z,82.34
2023-02-02T00:05:54.892Z,82.80
2023-02-02T00:08:24.933Z,83.15
2023-02-02T00:10:55.315Z,83.67
2023-02-02T00:13:25.959Z,83.79
2023-02-02T00:16:02.073Z,82.96
2023-02-02T00:18:33.516Z,83.23
2023-02-02T00:21:03.272Z,83.37
2023-02-02T00:23:33.389Z,83.38
2023-02-02T00:26:03.401Z,83.37
2023-02-02T00:28:35.551Z,83.51
2023-02-02T00:31:07.020Z,83.11
2023-02-02T00:33:38.571Z,83.12
2023-02-02T00:36:09.154Z,83.55
2023-02-02T00:38:39.681Z,83.73
2023-02-02T00:41:09.881Z,83.69
2023-02-02T00:43:41.120Z,83.33
2023-02-02T00:46:20.420Z,83.48
2023-02-02T00:48:54.406Z,83.13
2023-02-02T00:51:24.430Z,83.30
2023-02-02T00:53:54.265Z,83.19
2023-02-02T00:56:24.648Z,82.94
2023-02-02T00:58:57.511Z,82.89
2023-02-02T01:01:29.968Z,82.78
2023-02-02T01:04:02.747Z,83.38
2023-02-02T01:06:32.871Z,83.56
2023-02-02T01:09:02.702Z,83.38
2023-02-02T01:11:33.318Z,82.98
2023-02-02T01:14:03.492Z,83.71
2023-02-02T01:16:33.604Z,83.68
2023-02-02T01:19:03.898Z,83.78
2023-02-02T01:21:34.230Z,83.39
2023-02-02T01:24:04.053Z,83.33
2023-02-02T01:26:34.018Z,82.93
2023-02-02T01:29:03.893Z,83.76
2023-02-02T01:31:33.964Z,83.28
2023-02-02T01:34:06.161Z,82.78
2023-02-02T01:36:37.571Z,82.61
2023-02-02T01:39:11.495Z,83.41
2023-02-02T01:41:43.401Z,83.26
2023-02-02T01:44:49.999Z,83.44
2023-02-02T01:47:27.214Z,83.64
2023-02-02T01:50:00.892Z,83.65
2023-02-02T01:52:34.553Z,83.63
2023-02-02T01:55:12.911Z,84.24
2023-02-02T01:58:08.743Z,83.81
2023-02-02T02:00:41.237Z,83.47
2023-02-02T02:03:16.797Z,83.56
2023-02-02T02:05:53.067Z,84.38
2023-02-02T02:08:28.341Z,83.72
2023-02-02T02:10:59.526Z,83.67
2023-02-02T02:13:50.477Z,83.29
2023-02-02T02:16:48.826Z,83.96
2023-02-02T02:20:00.660Z,84.04
2023-02-02T02:23:09.223Z,83.91
2023-02-02T02:26:25.544Z,84.08
2023-02-02T02:29:17.671Z,83.64
2023-02-02T02:31:51.146Z,83.47
2023-02-02T02:34:28.113Z,83.51
2023-02-02T02:37:13.335Z,83.45
2023-02-02T02:39:56.475Z,83.61
2023-02-02T02:42:30.376Z,83.88
2023-02-02T02:45:04.252Z,83.92
2023-02-02T02:47:36.394Z,84.13
2023-02-02T02:50:07.372Z,84.33
2023-02-02T02:52:38.494Z,84.51
2023-02-02T02:55:11.447Z,84.44
2023-02-02T02:57:44.689Z,84.15
2023-02-02T03:00:50.113Z,84.08
2023-02-02T03:03:40.136Z,84.42
2023-02-02T03:06:19.902Z,85.36
2023-02-02T03:08:56.063Z,86.03
2023-02-02T03:11:26.518Z,86.30
2023-02-02T03:13:57.424Z,86.29
2023-02-02T03:16:27.771Z,86.24
2023-02-02T03:18:59.277Z,86.31
2023-02-02T03:21:29.358Z,85.85
2023-02-02T03:23:59.100Z,86.16
2023-02-02T03:26:29.422Z,86.44
2023-02-02T03:28:59.553Z,86.09
2023-02-02T03:31:30.783Z,86.20
2023-02-02T03:34:00.618Z,86.14
2023-02-02T03:36:30.607Z,85.90
2023-02-02T03:39:00.537Z,86.23
2023-02-02T03:41:30.543Z,86.01
2023-02-02T03:44:07.829Z,86.32
2023-02-02T03:46:43.971Z,85.99
2023-02-02T03:49:17.387Z,85.77
2023-02-02T03:51:53.126Z,85.69
2023-02-02T03:54:24.997Z,86.67
2023-02-02T03:56:56.110Z,86.34
2023-02-02T03:59:29.698Z,86.63
2023-02-02T04:02:02.061Z,86.36
2023-02-02T04:04:33.179Z,86.35
2023-02-02T04:07:05.619Z,86.17
2023-02-02T04:09:36.942Z,85.98
2023-02-02T04:12:09.031Z,86.41
2023-02-02T04:14:39.647Z,85.98
2023-02-02T04:17:10.537Z,86.26
2023-02-02T04:19:40.675Z,86.17
2023-02-02T04:22:12.190Z,85.87
2023-02-02T04:24:43.632Z,86.32
2023-02-02T04:27:13.385Z,86.39
2023-02-02T04:29:43.285Z,86.40
2023-02-02T04:32:13.136Z,86.20
2023-02-02T04:34:43.770Z,86.17
2023-02-02T04:37:14.117Z,86.27
2023-02-02T04:39:44.281Z,86.02
2023-02-02T04:42:14.054Z,86.39
2023-02-02T04:44:46.912Z,86.13
2023-02-02T04:47:17.047Z,86.49
2023-02-02T04:49:46.778Z,86.50
2023-02-02T04:52:16.777Z,86.82
2023-02-02T04:54:46.539Z,86.07
2023-02-02T04:57:16.693Z,85.78
2023-02-02T04:59:46.565Z,86.14
2023-02-02T05:02:16.527Z,85.92
2023-02-02T05:04:46.390Z,85.64
2023-02-02T05:07:16.579Z,85.45
2023-02-02T05:09:46.345Z,85.91
2023-02-02T05:12:16.306Z,85.85
2023-02-02T05:14:46.159Z,85.60
2023-02-02T05:17:16.320Z,85.39
2023-02-02T05:19:46.063Z,85.07
2023-02-02T05:22:15.996Z,84.96
2023-02-02T05:24:45.772Z,85.16
2023-02-02T05:27:15.984Z,85.17
2023-02-02T05:29:45.746Z,85.03
2023-02-02T05:32:15.728Z,84.93
2023-02-02T05:34:45.544Z,84.76
2023-02-02T05:37:15.760Z,84.84
2023-02-02T05:39:45.613Z,84.65
2023-02-02T05:42:15.577Z,84.69
2023-02-02T05:44:45.367Z,84.77
2023-02-02T05:47:15.423Z,84.49
2023-02-02T05:49:45.156Z,84.71
2023-02-02T05:52:25.796Z,84.70
2023-02-02T05:54:55.911Z,84.50
2023-02-02T05:57:25.706Z,84.51
2023-02-02T05:59:56.280Z,84.73
2023-02-02T06:02:26.130Z,84.79
2023-02-02T06:04:56.048Z,84.61
2023-02-02T06:07:25.891Z,84.40
2023-02-02T06:09:55.798Z,84.45
2023-02-02T06:12:25.629Z,84.56
2023-02-02T06:14:55.867Z,84.37
2023-02-02T06:17:25.643Z,84.22
2023-02-02T06:19:55.639Z,84.23
2023-02-02T06:22:25.745Z,84.18
2023-02-02T06:24:55.848Z,84.35
2023-02-02T06:27:25.620Z,84.42
2023-02-02T06:29:55.591Z,84.29
2023-02-02T06:32:25.324Z,84.22
2023-02-02T06:34:55.508Z,84.24
2023-02-02T06:37:25.419Z,84.15
2023-02-02T06:39:55.313Z,84.14
2023-02-02T06:42:25.119Z,84.10
2023-02-02T06:44:54.907Z,84.11
2023-02-02T06:47:26.582Z,84.21
2023-02-02T06:49:57.142Z,83.94
2023-02-02T06:52:26.965Z,83.89
2023-02-02T06:54:57.003Z,84.17
2023-02-02T06:57:26.831Z,84.21
2023-02-02T06:59:56.859Z,84.27
2023-02-02T07:02:26.776Z,84.14
2023-02-02T07:04:56.809Z,84.32
2023-02-02T07:07:26.595Z,84.33
2023-02-02T07:09:58.121Z,84.37
2023-02-02T07:12:28.853Z,84.50
2023-02-02T07:15:00.870Z,84.16
2023-02-02T07:17:31.080Z,84.19
2023-02-02T07:20:00.827Z,84.06
2023-02-02T07:22:30.762Z,84.08
2023-02-02T07:25:00.570Z,83.97
2023-02-02T07:27:30.464Z,83.77
2023-02-02T07:30:00.688Z,84.06
2023-02-02T07:32:30.722Z,84.04
2023-02-02T07:35:00.474Z,83.90
2023-02-02T07:37:30.444Z,83.64
2023-02-02T07:40:00.210Z,83.75
2023-02-02T07:42:30.408Z,83.83
2023-02-02T07:45:27.185Z,83.88
2023-02-02T07:47:58.436Z,83.73
2023-02-02T07:50:29.597Z,83.75
2023-02-02T07:53:01.785Z,83.81
2023-02-02T07:55:32.317Z,83.72
2023-02-02T07:58:02.841Z,83.62
2023-02-02T08:00:32.995Z,84.04
2023-02-02T08:03:02.777Z,83.90
2023-02-02T08:05:33.990Z,83.96
2023-02-02T08:08:04.162Z,83.76
2023-02-02T08:10:33.886Z,83.68
2023-02-02T08:13:04.135Z,83.76
2023-02-02T08:15:33.876Z,84.06
2023-02-02T08:18:04.019Z,84.04
2023-02-02T08:20:33.863Z,83.85
2023-02-02T08:23:03.899Z,83.71
2023-02-02T08:25:33.692Z,83.65
2023-02-02T08:28:04.165Z,83.76
2023-02-02T08:30:35.745Z,83.78
2023-02-02T08:33:06.008Z,83.67
2023-02-02T08:35:35.908Z,83.59
2023-02-02T08:38:06.517Z,83.62
2023-02-02T08:40:36.321Z,83.58
2023-02-02T08:43:07.117Z,83.61
2023-02-02T08:46:02.970Z,83.51
2023-02-02T08:48:36.389Z,83.47
2023-02-02T08:51:07.686Z,83.45
2023-02-02T08:53:37.870Z,83.34
2023-02-02T08:56:11.706Z,83.11
2023-02-02T08:58:45.865Z,82.98
2023-02-02T09:01:21.706Z,82.97
2023-02-02T09:04:02.877Z,82.78
2023-02-02T09:06:35.507Z,82.62
2023-02-02T09:09:07.601Z,82.26
2023-02-02T09:11:38.507Z,82.30
2023-02-02T09:14:08.845Z,81.98
2023-02-02T09:16:38.835Z,81.65
2023-02-02T09:19:09.417Z,81.31
2023-02-02T09:21:39.260Z,81.00
2023-02-02T09:24:11.911Z,80.72
2023-02-02T09:26:42.424Z,80.45
2023-02-02T09:29:17.378Z,79.84
2023-02-02T09:31:48.175Z,79.49
2023-02-02T09:34:18.640Z,79.32
2023-02-02T09:36:48.845Z,79.21
2023-02-02T09:39:20.622Z,79.35
2023-02-02T09:42:18.939Z,78.88
2023-02-02T09:45:08.185Z,77.95
2023-02-02T09:47:49.917Z,77.16
2023-02-02T09:50:40.755Z,77.30
2023-02-02T09:53:18.089Z,76.82
2023-02-02T09:55:52.118Z,76.59
2023-02-02T09:58:24.167Z,76.91
2023-02-02T10:01:30.605Z,77.32
2023-02-02T10:04:10.129Z,77.09
2023-02-02T10:06:42.954Z,77.33
2023-02-02T10:09:30.298Z,77.14
2023-02-02T10:12:33.872Z,77.31
2023-02-02T10:15:15.022Z,77.16
2023-02-02T10:17:56.976Z,77.85
2023-02-02T10:21:01.105Z,76.51
2023-02-02T10:23:40.287Z,66.70
2023-02-02T10:26:44.176Z,65.40
2023-02-02T10:29:48.819Z,66.62
2023-02-02T10:32:30.298Z,62.10
2023-02-02T10:35:34.239Z,62.50
2023-02-02T10:38:15.934Z,62.62
2023-02-02T10:41:06.107Z,62.60
2023-02-02T10:43:52.953Z,63.04
2023-02-02T10:46:34.892Z,63.19
2023-02-02T10:49:16.908Z,63.72
2023-02-02T10:52:13.482Z,64.69
2023-02-02T10:55:15.284Z,64.30
2023-02-02T10:57:54.553Z,63.85
2023-02-02T11:00:52.541Z,63.55
2023-02-02T11:03:32.718Z,64.40
2023-02-02T11:06:23.876Z,63.91
2023-02-02T11:09:00.630Z,63.80
2023-02-02T11:11:40.727Z,64.65
2023-02-02T11:14:10.825Z,64.58
2023-02-02T11:16:44.252Z,63.53
2023-02-02T11:19:29.093Z,64.68
2023-02-02T11:22:04.891Z,65.77
2023-02-02T11:24:50.813Z,65.63
2023-02-02T11:27:32.975Z,66.53
2023-02-02T11:30:23.835Z,65.75
2023-02-02T11:32:54.037Z,63.55
2023-02-02T11:35:26.483Z,63.72
2023-02-02T11:38:16.017Z,63.69
2023-02-02T11:40:47.935Z,64.12
2023-02-02T11:43:32.037Z,64.82
2023-02-02T11:46:03.167Z,65.29
2023-02-02T11:48:41.324Z,65.38
2023-02-02T11:51:27.376Z,65.87
2023-02-02T11:54:25.732Z,65.97
2023-02-02T11:56:58.429Z,66.14
2023-02-02T11:59:40.182Z,65.65
2023-02-02T12:02:31.784Z,65.49
2023-02-02T12:05:16.465Z,64.89
2023-02-02T12:07:46.918Z,64.64
2023-02-02T12:10:24.662Z,63.92
2023-02-02T12:13:00.755Z,62.91
2023-02-02T12:16:09.161Z,64.62
2023-02-02T12:19:04.198Z,65.44
2023-02-02T12:21:51.987Z,65.78
2023-02-02T12:24:27.976Z,66.12
2023-02-02T12:27:11.471Z,66.35
2023-02-02T12:30:17.547Z,66.38
2023-02-02T12:33:10.531Z,66.35
2023-02-02T12:36:03.002Z,66.07
2023-02-02T12:39:03.417Z,66.23
2023-02-02T12:41:53.081Z,67.86
2023-02-02T12:44:51.908Z,66.84
2023-02-02T12:47:29.666Z,67.20
2023-02-02T12:50:22.026Z,66.16
2023-02-02T12:53:10.238Z,66.01
2023-02-02T12:55:44.796Z,65.41
2023-02-02T12:58:24.116Z,66.14
2023-02-02T13:01:09.548Z,66.36
2023-02-02T13:04:09.358Z,66.85
2023-02-02T13:06:57.529Z,66.92
2023-02-02T13:09:39.416Z,65.17
2023-02-02T13:12:13.304Z,64.18
2023-02-02T13:14:51.070Z,64.19
2023-02-02T13:17:27.715Z,62.60
2023-02-02T13:20:07.758Z,62.35
2023-02-02T13:22:44.377Z,61.95
2023-02-02T13:25:30.495Z,62.92
2023-02-02T13:28:02.381Z,63.40
2023-02-02T13:30:40.141Z,65.40
2023-02-02T13:33:22.839Z,66.96
2023-02-02T13:35:57.084Z,66.95
2023-02-02T13:38:36.097Z,67.09
2023-02-02T13:41:10.207Z,67.69
2023-02-02T13:43:48.048Z,67.67
2023-02-02T13:46:31.679Z,69.05
2023-02-02T13:49:11.884Z,69.12
2023-02-02T13:52:15.414Z,69.52
2023-02-02T13:55:08.331Z,69.65
2023-02-02T13:57:45.152Z,71.37
2023-02-02T14:00:36.443Z,69.98
2023-02-02T14:03:24.242Z,69.66
2023-02-02T14:06:19.536Z,68.74
2023-02-02T14:09:02.745Z,68.31
2023-02-02T14:11:34.567Z,67.10
2023-02-02T14:14:35.695Z,63.93
2023-02-02T14:17:15.425Z,62.66
2023-02-02T14:19:56.951Z,63.11
2023-02-02T14:22:45.863Z,63.48
2023-02-02T14:25:35.001Z,64.81
2023-02-02T14:28:14.566Z,64.38
2023-02-02T14:31:19.907Z,64.73
2023-02-02T14:33:50.091Z,63.70
2023-02-02T14:36:21.352Z,61.11
2023-02-02T14:39:05.393Z,60.90
2023-02-02T14:42:25.034Z,61.34
2023-02-02T14:45:18.560Z,65.22
2023-02-02T14:47:54.155Z,64.40
2023-02-02T14:50:57.580Z,66.28
2023-02-02T14:53:29.823Z,67.24
2023-02-02T14:56:14.479Z,67.40
2023-02-02T14:58:57.527Z,67.74
2023-02-02T15:01:32.610Z,66.91
2023-02-02T15:04:02.543Z,67.83
2023-02-02T15:06:44.179Z,67.06
2023-02-02T15:09:29.635Z,67.44
2023-02-02T15:12:11.018Z,71.59
2023-02-02T15:14:47.409Z,78.51
2023-02-02T15:17:45.776Z,87.82
2023-02-02T15:20:26.751Z,88.29
2023-02-02T15:23:03.033Z,88.47
2023-02-02T15:25:47.146Z,88.62
2023-02-02T15:28:19.862Z,88.73
2023-02-02T15:30:58.374Z,88.81
2023-02-02T15:33:37.954Z,88.93
2023-02-02T15:36:18.925Z,88.65
2023-02-02T15:38:52.945Z,88.77
2023-02-02T15:41:45.051Z,88.84
2023-02-02T15:44:31.358Z,88.87
2023-02-02T15:47:03.156Z,88.90
2023-02-02T15:49:37.772Z,88.99
2023-02-02T15:52:28.943Z,89.07
2023-02-02T15:55:00.945Z,89.10
2023-02-02T15:57:38.930Z,89.19
2023-02-02T16:00:24.123Z,89.21
2023-02-02T16:03:16.140Z,89.20
2023-02-02T16:05:53.242Z,89.31
2023-02-02T16:08:29.476Z,89.40
2023-02-02T16:11:11.683Z,89.51
2023-02-02T16:13:43.454Z,89.49
2023-02-02T16:16:28.511Z,89.59
2023-02-02T16:19:25.101Z,89.60
2023-02-02T16:22:02.861Z,89.62
2023-02-02T16:24:36.515Z,89.65
2023-02-02T16:27:09.497Z,89.66
2023-02-02T16:29:41.660Z,89.67
2023-02-02T16:32:31.657Z,89.71
2023-02-02T16:53:57.556Z,89.73
2023-02-02T16:56:42.461Z,89.55
2023-02-02T17:01:54.137Z,82.30
2023-02-02T17:04:33.420Z,83.02
2023-02-02T17:07:17.182Z,84.56
2023-02-02T17:09:49.806Z,81.93
2023-02-02T17:12:33.871Z,81.21
2023-02-02T17:15:29.797Z,85.85
2023-02-02T17:18:00.350Z,81.29
2023-02-02T17:20:30.273Z,81.12
2023-02-02T17:23:10.951Z,83.80
2023-02-02T17:25:45.181Z,81.97
2023-02-02T17:28:24.014Z,83.81
2023-02-02T17:31:04.247Z,81.92
2023-02-02T17:33:36.432Z,80.13
2023-02-02T17:36:08.172Z,79.88
2023-02-02T17:38:40.558Z,80.27
2023-02-02T17:41:15.327Z,80.24
2023-02-02T17:43:46.469Z,80.04
2023-02-02T17:46:17.000Z,79.92
2023-02-02T17:48:47.000Z,80.12
2023-02-02T17:51:18.499Z,80.16
2023-02-02T17:53:48.760Z,79.80
2023-02-02T17:56:19.383Z,79.02
2023-02-02T17:58:50.397Z,79.42
2023-02-02T18:01:21.270Z,79.22
2023-02-02T18:03:51.937Z,79.76
2023-02-02T18:06:21.946Z,79.78
2023-02-02T18:08:51.724Z,79.84
2023-02-02T18:11:22.024Z,78.17
2023-02-02T18:13:52.321Z,76.56
2023-02-02T18:16:22.463Z,70.83
2023-02-02T18:18:52.464Z,69.86
2023-02-02T18:21:25.906Z,69.85
2023-02-02T18:23:56.179Z,68.16
2023-02-02T18:26:26.430Z,68.64
2023-02-02T18:28:56.500Z,70.18
2023-02-02T18:31:26.910Z,69.11
2023-02-02T18:33:57.845Z,69.54
2023-02-02T18:36:28.506Z,68.56
2023-02-02T18:38:59.190Z,68.33
2023-02-02T18:41:29.394Z,67.04
2023-02-02T18:43:59.322Z,67.25
2023-02-02T18:46:29.737Z,67.94
2023-02-02T18:48:59.661Z,68.48
2023-02-02T18:51:29.947Z,67.01
2023-02-02T18:54:03.093Z,66.94
2023-02-02T18:56:33.548Z,67.82
2023-02-02T18:59:03.747Z,67.70
2023-02-02T19:01:34.534Z,68.18
2023-02-02T19:04:04.772Z,67.34
2023-02-02T19:06:53.701Z,66.79
2023-02-02T19:09:24.137Z,65.71
2023-02-02T19:11:56.028Z,66.61
2023-02-02T19:14:34.450Z,66.57
2023-02-02T19:17:25.988Z,69.97
2023-02-02T19:20:00.771Z,64.48
2023-02-02T19:22:33.681Z,63.01
2023-02-02T19:25:12.637Z,65.37
2023-02-02T19:27:43.312Z,63.54
2023-02-02T19:30:24.511Z,67.66
2023-02-02T19:32:54.314Z,70.64
2023-02-02T19:35:26.627Z,69.19
2023-02-02T19:38:03.671Z,69.95
2023-02-02T19:40:35.528Z,69.27
2023-02-02T19:43:17.344Z,69.02
2023-02-02T19:45:47.649Z,67.90
2023-02-02T19:48:20.685Z,68.12
2023-02-02T19:50:50.966Z,67.86
2023-02-02T19:53:25.366Z,68.61
2023-02-02T19:55:55.818Z,68.21
2023-02-02T19:58:30.295Z,69.24
2023-02-02T20:01:20.852Z,71.00
2023-02-02T20:03:52.124Z,69.25
2023-02-02T20:06:31.737Z,68.88
2023-02-02T20:09:02.417Z,68.84
2023-02-02T20:11:41.205Z,68.67
2023-02-02T20:14:34.278Z,71.77
2023-02-02T20:17:15.311Z,69.74
2023-02-02T20:19:48.241Z,69.93
2023-02-02T20:22:29.900Z,71.39
2023-02-02T20:25:05.083Z,70.77
2023-02-02T20:27:36.909Z,69.68
2023-02-02T20:30:29.375Z,71.20
2023-02-02T20:33:01.417Z,69.71
2023-02-02T20:35:37.608Z,71.17
2023-02-02T20:38:26.745Z,72.26
2023-02-02T20:40:58.220Z,71.71
2023-02-02T20:43:28.306Z,71.97
2023-02-02T20:46:00.590Z,72.24
2023-02-02T20:48:31.519Z,73.89
2023-02-02T20:51:01.269Z,74.74
2023-02-02T20:53:31.569Z,74.41
2023-02-02T20:56:03.327Z,73.95
2023-02-02T20:58:33.742Z,73.87
2023-02-02T21:01:06.520Z,73.73
2023-02-02T21:03:36.684Z,73.31
2023-02-02T21:06:06.666Z,73.53
2023-02-02T21:08:37.041Z,73.72
2023-02-02T21:11:07.093Z,72.91
2023-02-02T21:13:38.678Z,72.94
2023-02-02T21:16:12.256Z,73.11
2023-02-02T21:18:48.586Z,72.40
2023-02-02T21:21:20.038Z,72.43
2023-02-02T21:23:55.396Z,72.37
2023-02-02T21:26:32.447Z,72.28
2023-02-02T21:29:03.580Z,72.68
2023-02-02T21:31:36.261Z,73.66
2023-02-02T21:34:07.358Z,74.20
2023-02-02T21:36:38.923Z,75.05
2023-02-02T21:39:17.847Z,75.05
2023-02-02T21:41:49.113Z,74.61
2023-02-02T21:44:22.550Z,73.83
2023-02-02T21:46:54.110Z,73.24
2023-02-02T21:49:40.023Z,73.32
2023-02-02T21:52:16.959Z,73.59
2023-02-02T21:54:48.206Z,73.86
2023-02-02T21:57:37.690Z,74.38
2023-02-02T22:00:33.878Z,75.22
2023-02-02T22:03:04.658Z,74.67
2023-02-02T22:05:38.576Z,73.85
2023-02-02T22:08:25.135Z,74.26
2023-02-02T22:10:55.365Z,73.67
2023-02-02T22:13:26.204Z,73.16
2023-02-02T22:15:56.601Z,73.29
2023-02-02T22:18:28.186Z,72.99
2023-02-02T22:20:58.791Z,73.09
2023-02-02T22:23:31.478Z,73.46
2023-02-02T22:26:01.625Z,73.51
2023-02-02T22:28:43.377Z,73.60
2023-02-02T22:38:55.845Z,74.25
2023-02-02T22:41:26.001Z,74.21
2023-02-02T22:43:56.115Z,74.10
2023-02-02T22:46:27.060Z,73.88
2023-02-02T22:48:57.363Z,74.58
2023-02-02T22:51:27.258Z,75.16
2023-02-02T22:53:58.679Z,75.15
2023-02-02T22:56:29.126Z,75.36
2023-02-02T22:58:58.922Z,75.79
2023-02-02T23:01:28.944Z,75.24
2023-02-02T23:03:59.022Z,74.77
2023-02-02T23:06:29.965Z,74.82
2023-02-02T23:09:00.127Z,75.47
2023-02-02T23:11:30.321Z,75.77
2023-02-02T23:14:00.449Z,75.92
2023-02-02T23:16:30.359Z,75.80
2023-02-02T23:19:00.529Z,75.83
2023-02-02T23:21:30.517Z,76.64
2023-02-02T23:24:00.762Z,76.68
2023-02-02T23:26:30.680Z,76.89
2023-02-02T23:29:01.993Z,76.89
2023-02-02T23:31:32.324Z,77.02
2023-02-02T23:34:02.193Z,77.04
2023-02-02T23:36:33.568Z,76.72
2023-02-02T23:39:05.498Z,76.61
2023-02-02T23:41:36.532Z,76.55
2023-02-02T23:44:06.823Z,75.98
2023-02-02T23:46:38.448Z,75.90
2023-02-02T23:49:08.755Z,75.54
2023-02-02T23:51:38.697Z,75.83
2023-02-02T23:54:10.699Z,75.71
2023-02-02T23:56:41.717Z,76.28
2023-02-02T23:59:12.233Z,76.28
